sensor_id;sensor_type;location;lat;lon;timestamp;P1;durP1;ratioP1;P2;durP2;ratioP2
24411;SDS011;12544;46.760;15.942;2023-05-07T00:00:36;7.30;;;6.65;;
24411;SDS011;12544;46.760;15.942;2023-05-07T00:03:02;7.35;;;6.65;;
24411;SDS011;12544;46.760;15.942;2023-05-07T00:05:28;7.30;;;6.50;;
24411;SDS011;12544;46.760;15.942;2023-05-07T00:07:53;7.75;;;7.03;;
24411;SDS011;12544;46.760;15.942;2023-05-07T00:12:53;7.95;;;7.15;;
24411;SDS011;12544;46.760;15.942;2023-05-07T00:15:18;7.85;;;7.00;;
24411;SDS011;12544;46.760;15.942;2023-05-07T00:17:44;7.55;;;6.85;;
24411;SDS011;12544;46.760;15.942;2023-05-07T00:20:10;7.28;;;6.65;;
24411;SDS011;12544;46.760;15.942;2023-05-07T00:22:36;8.77;;;7.75;;
24411;SDS011;12544;46.760;15.942;2023-05-07T00:25:02;8.30;;;7.53;;
24411;SDS011;12544;46.760;15.942;2023-05-07T00:27:28;8.73;;;7.93;;
24411;SDS011;12544;46.760;15.942;2023-05-07T00:29:54;7.80;;;7.10;;
24411;SDS011;12544;46.760;15.942;2023-05-07T00:32:21;7.78;;;6.97;;
24411;SDS011;12544;46.760;15.942;2023-05-07T00:34:46;9.43;;;8.52;;
24411;SDS011;12544;46.760;15.942;2023-05-07T00:37:12;9.00;;;8.20;;
24411;SDS011;12544;46.760;15.942;2023-05-07T00:39:37;8.52;;;7.10;;
24411;SDS011;12544;46.760;15.942;2023-05-07T00:42:03;9.25;;;8.32;;
24411;SDS011;12544;46.760;15.942;2023-05-07T00:44:29;10.95;;;8.32;;
24411;SDS011;12544;46.760;15.942;2023-05-07T00:46:55;8.07;;;7.38;;
24411;SDS011;12544;46.760;15.942;2023-05-07T00:49:27;9.15;;;8.35;;
24411;SDS011;12544;46.760;15.942;2023-05-07T00:52:05;7.93;;;6.90;;
24411;SDS011;12544;46.760;15.942;2023-05-07T00:54:32;8.10;;;7.40;;
24411;SDS011;12544;46.760;15.942;2023-05-07T00:56:59;7.57;;;6.88;;
24411;SDS011;12544;46.760;15.942;2023-05-07T00:59:26;9.07;;;8.27;;
24411;SDS011;12544;46.760;15.942;2023-05-07T01:01:52;8.65;;;7.95;;
24411;SDS011;12544;46.760;15.942;2023-05-07T01:04:18;8.82;;;7.93;;
24411;SDS011;12544;46.760;15.942;2023-05-07T01:06:44;8.40;;;7.43;;
24411;SDS011;12544;46.760;15.942;2023-05-07T01:09:10;9.32;;;8.43;;
24411;SDS011;12544;46.760;15.942;2023-05-07T01:11:37;10.50;;;8.88;;
24411;SDS011;12544;46.760;15.942;2023-05-07T01:14:04;13.52;;;9.95;;
24411;SDS011;12544;46.760;15.942;2023-05-07T01:16:30;10.75;;;9.75;;
24411;SDS011;12544;46.760;15.942;2023-05-07T01:18:56;12.85;;;11.55;;
24411;SDS011;12544;46.760;15.942;2023-05-07T01:21:24;13.98;;;12.57;;
24411;SDS011;12544;46.760;15.942;2023-05-07T01:23:52;13.20;;;11.60;;
24411;SDS011;12544;46.760;15.942;2023-05-07T01:26:20;12.52;;;11.05;;
24411;SDS011;12544;46.760;15.942;2023-05-07T01:28:47;13.82;;;10.85;;
24411;SDS011;12544;46.760;15.942;2023-05-07T01:34:34;9.25;;;8.45;;
24411;SDS011;12544;46.760;15.942;2023-05-07T01:37:01;8.82;;;7.93;;
24411;SDS011;12544;46.760;15.942;2023-05-07T01:39:28;8.68;;;7.88;;
24411;SDS011;12544;46.760;15.942;2023-05-07T01:41:55;8.38;;;7.32;;
24411;SDS011;12544;46.760;15.942;2023-05-07T01:44:21;7.82;;;7.13;;
24411;SDS011;12544;46.760;15.942;2023-05-07T01:46:47;7.82;;;7.05;;
24411;SDS011;12544;46.760;15.942;2023-05-07T01:49:13;7.97;;;7.20;;
24411;SDS011;12544;46.760;15.942;2023-05-07T01:51:40;9.48;;;8.35;;
24411;SDS011;12544;46.760;15.942;2023-05-07T01:54:06;9.55;;;8.52;;
24411;SDS011;12544;46.760;15.942;2023-05-07T01:56:33;10.10;;;9.10;;
24411;SDS011;12544;46.760;15.942;2023-05-07T01:58:58;21.67;;;11.50;;
24411;SDS011;12544;46.760;15.942;2023-05-07T02:01:24;51.83;;;11.43;;
24411;SDS011;12544;46.760;15.942;2023-05-07T02:03:50;13.60;;;11.77;;
24411;SDS011;12544;46.760;15.942;2023-05-07T02:06:15;14.25;;;12.63;;
24411;SDS011;12544;46.760;15.942;2023-05-07T02:08:41;14.43;;;12.93;;
24411;SDS011;12544;46.760;15.942;2023-05-07T02:11:07;14.20;;;12.80;;
24411;SDS011;12544;46.760;15.942;2023-05-07T02:13:33;17.33;;;13.43;;
24411;SDS011;12544;46.760;15.942;2023-05-07T02:15:59;22.50;;;14.23;;
24411;SDS011;12544;46.760;15.942;2023-05-07T02:21:47;16.00;;;14.35;;
24411;SDS011;12544;46.760;15.942;2023-05-07T02:24:13;16.05;;;14.35;;
24411;SDS011;12544;46.760;15.942;2023-05-07T02:26:42;15.63;;;13.93;;
24411;SDS011;12544;46.760;15.942;2023-05-07T02:29:07;13.68;;;12.27;;
24411;SDS011;12544;46.760;15.942;2023-05-07T02:31:33;14.05;;;12.65;;
24411;SDS011;12544;46.760;15.942;2023-05-07T02:33:59;14.80;;;13.40;;
24411;SDS011;12544;46.760;15.942;2023-05-07T02:36:25;13.63;;;12.23;;
24411;SDS011;12544;46.760;15.942;2023-05-07T02:38:51;12.55;;;11.25;;
24411;SDS011;12544;46.760;15.942;2023-05-07T02:41:17;13.38;;;11.98;;
24411;SDS011;12544;46.760;15.942;2023-05-07T02:43:43;13.85;;;12.27;;
24411;SDS011;12544;46.760;15.942;2023-05-07T02:46:08;12.60;;;11.30;;
24411;SDS011;12544;46.760;15.942;2023-05-07T02:48:34;12.77;;;11.50;;
24411;SDS011;12544;46.760;15.942;2023-05-07T02:51:00;11.30;;;10.18;;
24411;SDS011;12544;46.760;15.942;2023-05-07T02:53:28;13.07;;;11.43;;
24411;SDS011;12544;46.760;15.942;2023-05-07T02:55:57;12.35;;;11.07;;
24411;SDS011;12544;46.760;15.942;2023-05-07T02:58:24;11.82;;;10.48;;
24411;SDS011;12544;46.760;15.942;2023-05-07T03:00:50;12.00;;;10.85;;
24411;SDS011;12544;46.760;15.942;2023-05-07T03:03:16;74.15;;;13.98;;
24411;SDS011;12544;46.760;15.942;2023-05-07T03:05:42;18.85;;;11.35;;
24411;SDS011;12544;46.760;15.942;2023-05-07T03:08:08;13.10;;;11.85;;
24411;SDS011;12544;46.760;15.942;2023-05-07T03:10:34;12.60;;;11.30;;
24411;SDS011;12544;46.760;15.942;2023-05-07T03:13:01;11.70;;;10.60;;
24411;SDS011;12544;46.760;15.942;2023-05-07T03:18:48;10.98;;;9.85;;
24411;SDS011;12544;46.760;15.942;2023-05-07T03:21:14;11.93;;;10.70;;
24411;SDS011;12544;46.760;15.942;2023-05-07T03:23:39;11.13;;;10.23;;
24411;SDS011;12544;46.760;15.942;2023-05-07T03:26:05;11.40;;;10.20;;
24411;SDS011;12544;46.760;15.942;2023-05-07T03:28:30;10.48;;;9.48;;
24411;SDS011;12544;46.760;15.942;2023-05-07T03:30:56;11.88;;;10.68;;
24411;SDS011;12544;46.760;15.942;2023-05-07T03:33:22;12.98;;;11.73;;
24411;SDS011;12544;46.760;15.942;2023-05-07T03:35:47;13.00;;;11.15;;
24411;SDS011;12544;46.760;15.942;2023-05-07T03:38:13;10.43;;;9.38;;
24411;SDS011;12544;46.760;15.942;2023-05-07T03:40:38;10.38;;;9.38;;
24411;SDS011;12544;46.760;15.942;2023-05-07T03:43:04;11.70;;;10.70;;
24411;SDS011;12544;46.760;15.942;2023-05-07T03:45:30;11.35;;;10.15;;
24411;SDS011;12544;46.760;15.942;2023-05-07T03:47:55;11.13;;;10.13;;
24411;SDS011;12544;46.760;15.942;2023-05-07T03:50:21;12.35;;;11.15;;
24411;SDS011;12544;46.760;15.942;2023-05-07T03:52:47;12.57;;;11.25;;
24411;SDS011;12544;46.760;15.942;2023-05-07T03:55:12;12.52;;;11.32;;
24411;SDS011;12544;46.760;15.942;2023-05-07T03:57:38;14.18;;;12.68;;
24411;SDS011;12544;46.760;15.942;2023-05-07T04:00:03;13.77;;;11.27;;
24411;SDS011;12544;46.760;15.942;2023-05-07T04:02:30;22.02;;;12.18;;
24411;SDS011;12544;46.760;15.942;2023-05-07T04:04:56;17.23;;;13.90;;
24411;SDS011;12544;46.760;15.942;2023-05-07T04:07:22;19.23;;;14.00;;
24411;SDS011;12544;46.760;15.942;2023-05-07T04:09:47;16.67;;;12.35;;
24411;SDS011;12544;46.760;15.942;2023-05-07T04:12:13;19.88;;;10.48;;
24411;SDS011;12544;46.760;15.942;2023-05-07T04:14:38;33.83;;;10.93;;
24411;SDS011;12544;46.760;15.942;2023-05-07T04:17:04;14.52;;;11.70;;
24411;SDS011;12544;46.760;15.942;2023-05-07T04:19:32;22.38;;;13.13;;
24411;SDS011;12544;46.760;15.942;2023-05-07T04:21:58;16.92;;;13.07;;
24411;SDS011;12544;46.760;15.942;2023-05-07T04:24:24;162.35;;;18.90;;
24411;SDS011;12544;46.760;15.942;2023-05-07T04:26:50;162.57;;;18.73;;
24411;SDS011;12544;46.760;15.942;2023-05-07T04:29:16;72.15;;;14.82;;
24411;SDS011;12544;46.760;15.942;2023-05-07T04:31:42;37.90;;;13.65;;
24411;SDS011;12544;46.760;15.942;2023-05-07T04:34:09;44.60;;;13.98;;
24411;SDS011;12544;46.760;15.942;2023-05-07T04:36:36;12.35;;;11.10;;
24411;SDS011;12544;46.760;15.942;2023-05-07T04:39:03;26.58;;;8.10;;
24411;SDS011;12544;46.760;15.942;2023-05-07T04:41:29;15.75;;;9.50;;
24411;SDS011;12544;46.760;15.942;2023-05-07T04:43:55;105.63;;;10.45;;
24411;SDS011;12544;46.760;15.942;2023-05-07T04:49:43;12.30;;;6.65;;
24411;SDS011;12544;46.760;15.942;2023-05-07T04:52:09;39.38;;;12.13;;
24411;SDS011;12544;46.760;15.942;2023-05-07T04:54:34;16.90;;;8.80;;
24411;SDS011;12544;46.760;15.942;2023-05-07T04:57:00;12.63;;;7.75;;
24411;SDS011;12544;46.760;15.942;2023-05-07T04:59:25;14.13;;;10.70;;
24411;SDS011;12544;46.760;15.942;2023-05-07T05:01:51;14.98;;;9.38;;
24411;SDS011;12544;46.760;15.942;2023-05-07T05:04:17;9.23;;;8.40;;
24411;SDS011;12544;46.760;15.942;2023-05-07T05:06:42;26.60;;;9.15;;
24411;SDS011;12544;46.760;15.942;2023-05-07T05:09:08;22.50;;;9.40;;
24411;SDS011;12544;46.760;15.942;2023-05-07T05:11:34;14.50;;;9.40;;
24411;SDS011;12544;46.760;15.942;2023-05-07T05:13:59;21.02;;;9.48;;
24411;SDS011;12544;46.760;15.942;2023-05-07T05:16:25;13.27;;;9.38;;
24411;SDS011;12544;46.760;15.942;2023-05-07T05:18:51;13.60;;;9.32;;
24411;SDS011;12544;46.760;15.942;2023-05-07T05:21:17;9.73;;;8.55;;
24411;SDS011;12544;46.760;15.942;2023-05-07T05:23:43;15.57;;;9.55;;
24411;SDS011;12544;46.760;15.942;2023-05-07T05:26:08;31.83;;;9.57;;
24411;SDS011;12544;46.760;15.942;2023-05-07T05:28:34;32.30;;;10.93;;
24411;SDS011;12544;46.760;15.942;2023-05-07T05:31:00;21.08;;;9.98;;
24411;SDS011;12544;46.760;15.942;2023-05-07T05:33:25;14.45;;;10.75;;
24411;SDS011;12544;46.760;15.942;2023-05-07T05:35:51;43.65;;;11.48;;
24411;SDS011;12544;46.760;15.942;2023-05-07T05:38:18;51.42;;;12.55;;
24411;SDS011;12544;46.760;15.942;2023-05-07T05:40:44;17.10;;;9.77;;
24411;SDS011;12544;46.760;15.942;2023-05-07T05:43:09;11.63;;;10.27;;
24411;SDS011;12544;46.760;15.942;2023-05-07T05:45:35;31.02;;;11.40;;
24411;SDS011;12544;46.760;15.942;2023-05-07T05:48:01;19.23;;;12.23;;
24411;SDS011;12544;46.760;15.942;2023-05-07T05:50:26;18.17;;;12.65;;
24411;SDS011;12544;46.760;15.942;2023-05-07T05:52:52;13.15;;;11.38;;
24411;SDS011;12544;46.760;15.942;2023-05-07T05:55:17;12.90;;;10.57;;
24411;SDS011;12544;46.760;15.942;2023-05-07T05:57:43;12.38;;;11.15;;
24411;SDS011;12544;46.760;15.942;2023-05-07T06:00:09;17.75;;;11.30;;
24411;SDS011;12544;46.760;15.942;2023-05-07T06:05:57;24.73;;;11.15;;
24411;SDS011;12544;46.760;15.942;2023-05-07T06:08:23;12.82;;;11.52;;
24411;SDS011;12544;46.760;15.942;2023-05-07T06:10:49;13.13;;;11.82;;
24411;SDS011;12544;46.760;15.942;2023-05-07T06:13:14;12.32;;;11.15;;
24411;SDS011;12544;46.760;15.942;2023-05-07T06:15:40;12.15;;;11.00;;
24411;SDS011;12544;46.760;15.942;2023-05-07T06:18:06;13.10;;;11.02;;
24411;SDS011;12544;46.760;15.942;2023-05-07T06:23:53;13.43;;;10.85;;
24411;SDS011;12544;46.760;15.942;2023-05-07T06:26:20;12.73;;;11.63;;
24411;SDS011;12544;46.760;15.942;2023-05-07T06:28:45;12.27;;;11.07;;
24411;SDS011;12544;46.760;15.942;2023-05-07T06:31:15;12.73;;;11.73;;
24411;SDS011;12544;46.760;15.942;2023-05-07T06:33:43;12.13;;;11.02;;
24411;SDS011;12544;46.760;15.942;2023-05-07T06:36:09;12.10;;;10.90;;
24411;SDS011;12544;46.760;15.942;2023-05-07T06:38:35;11.63;;;10.63;;
24411;SDS011;12544;46.760;15.942;2023-05-07T06:41:01;12.18;;;11.20;;
24411;SDS011;12544;46.760;15.942;2023-05-07T06:43:26;11.57;;;10.55;;
24411;SDS011;12544;46.760;15.942;2023-05-07T06:45:52;11.35;;;10.35;;
24411;SDS011;12544;46.760;15.942;2023-05-07T06:48:18;11.45;;;10.38;;
24411;SDS011;12544;46.760;15.942;2023-05-07T06:50:43;12.07;;;10.90;;
24411;SDS011;12544;46.760;15.942;2023-05-07T06:53:09;10.75;;;9.85;;
24411;SDS011;12544;46.760;15.942;2023-05-07T06:55:34;11.43;;;10.25;;
24411;SDS011;12544;46.760;15.942;2023-05-07T06:58:00;10.25;;;9.25;;
24411;SDS011;12544;46.760;15.942;2023-05-07T07:00:29;9.57;;;8.63;;
24411;SDS011;12544;46.760;15.942;2023-05-07T07:02:55;9.57;;;8.75;;
24411;SDS011;12544;46.760;15.942;2023-05-07T07:05:21;8.73;;;7.93;;
24411;SDS011;12544;46.760;15.942;2023-05-07T07:07:46;8.45;;;7.75;;
24411;SDS011;12544;46.760;15.942;2023-05-07T07:10:20;7.43;;;6.82;;
24411;SDS011;12544;46.760;15.942;2023-05-07T07:16:08;7.53;;;6.93;;
24411;SDS011;12544;46.760;15.942;2023-05-07T07:18:34;7.80;;;7.00;;
24411;SDS011;12544;46.760;15.942;2023-05-07T07:21:00;7.13;;;6.43;;
24411;SDS011;12544;46.760;15.942;2023-05-07T07:23:26;8.27;;;7.57;;
24411;SDS011;12544;46.760;15.942;2023-05-07T07:25:51;7.55;;;6.75;;
24411;SDS011;12544;46.760;15.942;2023-05-07T07:28:17;7.85;;;7.15;;
24411;SDS011;12544;46.760;15.942;2023-05-07T07:30:45;7.70;;;7.00;;
24411;SDS011;12544;46.760;15.942;2023-05-07T07:33:11;7.35;;;6.65;;
24411;SDS011;12544;46.760;15.942;2023-05-07T07:35:36;7.70;;;7.00;;
24411;SDS011;12544;46.760;15.942;2023-05-07T07:38:02;8.10;;;7.03;;
24411;SDS011;12544;46.760;15.942;2023-05-07T07:43:54;6.07;;;5.57;;
24411;SDS011;12544;46.760;15.942;2023-05-07T07:46:20;7.13;;;5.88;;
24411;SDS011;12544;46.760;15.942;2023-05-07T07:48:46;6.22;;;5.63;;
24411;SDS011;12544;46.760;15.942;2023-05-07T07:51:11;6.70;;;6.10;;
24411;SDS011;12544;46.760;15.942;2023-05-07T07:53:37;5.28;;;4.88;;
24411;SDS011;12544;46.760;15.942;2023-05-07T07:56:03;6.85;;;6.18;;
24411;SDS011;12544;46.760;15.942;2023-05-07T07:58:29;6.10;;;5.50;;
24411;SDS011;12544;46.760;15.942;2023-05-07T08:00:54;5.88;;;5.38;;
24411;SDS011;12544;46.760;15.942;2023-05-07T08:03:21;6.88;;;6.00;;
24411;SDS011;12544;46.760;15.942;2023-05-07T08:05:47;5.75;;;5.28;;
24411;SDS011;12544;46.760;15.942;2023-05-07T08:08:15;5.80;;;5.20;;
24411;SDS011;12544;46.760;15.942;2023-05-07T08:10:40;5.63;;;5.05;;
24411;SDS011;12544;46.760;15.942;2023-05-07T08:13:06;6.00;;;5.50;;
24411;SDS011;12544;46.760;15.942;2023-05-07T08:15:32;5.38;;;4.97;;
24411;SDS011;12544;46.760;15.942;2023-05-07T08:17:58;6.03;;;5.53;;
24411;SDS011;12544;46.760;15.942;2023-05-07T08:20:25;5.30;;;4.78;;
24411;SDS011;12544;46.760;15.942;2023-05-07T08:22:51;5.32;;;4.82;;
24411;SDS011;12544;46.760;15.942;2023-05-07T08:25:17;4.85;;;4.45;;
24411;SDS011;12544;46.760;15.942;2023-05-07T08:27:42;5.10;;;4.70;;
24411;SDS011;12544;46.760;15.942;2023-05-07T08:30:09;5.05;;;4.65;;
24411;SDS011;12544;46.760;15.942;2023-05-07T08:32:36;4.85;;;4.43;;
24411;SDS011;12544;46.760;15.942;2023-05-07T08:35:01;4.55;;;3.60;;
24411;SDS011;12544;46.760;15.942;2023-05-07T08:37:27;4.70;;;4.30;;
24411;SDS011;12544;46.760;15.942;2023-05-07T08:43:14;4.35;;;3.95;;
24411;SDS011;12544;46.760;15.942;2023-05-07T08:45:40;4.18;;;3.88;;
24411;SDS011;12544;46.760;15.942;2023-05-07T08:48:09;3.72;;;3.42;;
24411;SDS011;12544;46.760;15.942;2023-05-07T08:50:40;5.30;;;3.95;;
24411;SDS011;12544;46.760;15.942;2023-05-07T08:53:06;4.45;;;4.05;;
24411;SDS011;12544;46.760;15.942;2023-05-07T08:55:31;3.80;;;3.50;;
24411;SDS011;12544;46.760;15.942;2023-05-07T08:57:58;4.47;;;4.07;;
24411;SDS011;12544;46.760;15.942;2023-05-07T09:00:24;4.90;;;3.75;;
24411;SDS011;12544;46.760;15.942;2023-05-07T09:02:49;4.18;;;3.78;;
24411;SDS011;12544;46.760;15.942;2023-05-07T09:05:15;5.32;;;4.93;;
24411;SDS011;12544;46.760;15.942;2023-05-07T09:07:41;5.20;;;4.80;;
24411;SDS011;12544;46.760;15.942;2023-05-07T09:10:07;5.35;;;4.85;;
24411;SDS011;12544;46.760;15.942;2023-05-07T09:12:32;5.25;;;4.20;;
24411;SDS011;12544;46.760;15.942;2023-05-07T09:15:00;4.43;;;4.05;;
24411;SDS011;12544;46.760;15.942;2023-05-07T09:17:26;3.88;;;3.58;;
24411;SDS011;12544;46.760;15.942;2023-05-07T09:19:52;4.07;;;3.78;;
24411;SDS011;12544;46.760;15.942;2023-05-07T09:22:18;3.92;;;3.60;;
24411;SDS011;12544;46.760;15.942;2023-05-07T09:24:47;4.38;;;3.97;;
24411;SDS011;12544;46.760;15.942;2023-05-07T09:27:14;5.25;;;4.53;;
24411;SDS011;12544;46.760;15.942;2023-05-07T09:29:40;5.20;;;4.07;;
24411;SDS011;12544;46.760;15.942;2023-05-07T09:32:06;3.80;;;3.50;;
24411;SDS011;12544;46.760;15.942;2023-05-07T09:34:33;4.32;;;3.78;;
24411;SDS011;12544;46.760;15.942;2023-05-07T09:37:00;3.97;;;3.08;;
24411;SDS011;12544;46.760;15.942;2023-05-07T09:39:26;4.38;;;3.97;;
24411;SDS011;12544;46.760;15.942;2023-05-07T09:42:07;4.38;;;3.90;;
24411;SDS011;12544;46.760;15.942;2023-05-07T09:44:33;4.65;;;4.25;;
24411;SDS011;12544;46.760;15.942;2023-05-07T09:47:00;4.53;;;4.20;;
24411;SDS011;12544;46.760;15.942;2023-05-07T09:49:29;5.00;;;4.60;;
24411;SDS011;12544;46.760;15.942;2023-05-07T09:51:57;4.95;;;4.47;;
24411;SDS011;12544;46.760;15.942;2023-05-07T09:54:26;4.05;;;3.63;;
24411;SDS011;12544;46.760;15.942;2023-05-07T09:56:54;4.25;;;3.95;;
24411;SDS011;12544;46.760;15.942;2023-05-07T09:59:20;4.82;;;4.43;;
24411;SDS011;12544;46.760;15.942;2023-05-07T10:01:47;4.45;;;4.15;;
24411;SDS011;12544;46.760;15.942;2023-05-07T10:04:14;5.88;;;4.28;;
24411;SDS011;12544;46.760;15.942;2023-05-07T10:06:40;5.78;;;4.95;;
24411;SDS011;12544;46.760;15.942;2023-05-07T10:09:08;4.75;;;4.28;;
24411;SDS011;12544;46.760;15.942;2023-05-07T10:11:36;5.38;;;4.65;;
24411;SDS011;12544;46.760;15.942;2023-05-07T10:14:02;4.43;;;4.03;;
24411;SDS011;12544;46.760;15.942;2023-05-07T10:16:31;4.53;;;4.22;;
24411;SDS011;12544;46.760;15.942;2023-05-07T10:18:58;4.35;;;4.00;;
24411;SDS011;12544;46.760;15.942;2023-05-07T10:21:24;4.85;;;4.30;;
24411;SDS011;12544;46.760;15.942;2023-05-07T10:24:15;4.63;;;3.55;;
24411;SDS011;12544;46.760;15.942;2023-05-07T10:26:42;5.10;;;4.70;;
24411;SDS011;12544;46.760;15.942;2023-05-07T10:29:45;4.30;;;3.88;;
24411;SDS011;12544;46.760;15.942;2023-05-07T10:34:45;4.50;;;4.10;;
24411;SDS011;12544;46.760;15.942;2023-05-07T10:37:13;4.32;;;3.92;;
24411;SDS011;12544;46.760;15.942;2023-05-07T10:39:40;4.47;;;4.07;;
24411;SDS011;12544;46.760;15.942;2023-05-07T10:42:09;4.35;;;4.05;;
24411;SDS011;12544;46.760;15.942;2023-05-07T10:48:16;5.10;;;4.40;;
24411;SDS011;12544;46.760;15.942;2023-05-07T10:50:42;4.18;;;3.83;;
24411;SDS011;12544;46.760;15.942;2023-05-07T10:55:47;4.72;;;4.32;;
24411;SDS011;12544;46.760;15.942;2023-05-07T11:00:56;4.88;;;4.38;;
24411;SDS011;12544;46.760;15.942;2023-05-07T11:03:23;4.80;;;3.67;;
24411;SDS011;12544;46.760;15.942;2023-05-07T11:06:08;4.90;;;4.40;;
24411;SDS011;12544;46.760;15.942;2023-05-07T11:08:53;4.45;;;4.15;;
24411;SDS011;12544;46.760;15.942;2023-05-07T11:15:01;5.38;;;4.05;;
24411;SDS011;12544;46.760;15.942;2023-05-07T11:17:09;4.15;;;3.70;;
24411;SDS011;12544;46.760;15.942;2023-05-07T11:19:48;4.43;;;4.13;;
24411;SDS011;12544;46.760;15.942;2023-05-07T11:24:56;4.43;;;4.13;;
24411;SDS011;12544;46.760;15.942;2023-05-07T11:27:25;3.92;;;3.63;;
24411;SDS011;12544;46.760;15.942;2023-05-07T11:29:52;4.35;;;3.95;;
24411;SDS011;12544;46.760;15.942;2023-05-07T11:35:39;3.90;;;3.60;;
24411;SDS011;12544;46.760;15.942;2023-05-07T11:38:07;3.40;;;3.20;;
24411;SDS011;12544;46.760;15.942;2023-05-07T11:40:33;4.78;;;4.38;;
24411;SDS011;12544;46.760;15.942;2023-05-07T11:42:59;4.40;;;4.07;;
24411;SDS011;12544;46.760;15.942;2023-05-07T11:45:34;5.45;;;4.15;;
24411;SDS011;12544;46.760;15.942;2023-05-07T11:48:01;4.47;;;3.85;;
24411;SDS011;12544;46.760;15.942;2023-05-07T11:50:27;3.90;;;3.35;;
24411;SDS011;12544;46.760;15.942;2023-05-07T11:52:52;4.40;;;4.00;;
24411;SDS011;12544;46.760;15.942;2023-05-07T11:55:18;4.45;;;4.07;;
24411;SDS011;12544;46.760;15.942;2023-05-07T12:01:07;4.75;;;4.40;;
24411;SDS011;12544;46.760;15.942;2023-05-07T12:03:35;4.47;;;3.65;;
24411;SDS011;12544;46.760;15.942;2023-05-07T12:06:02;4.53;;;3.70;;
24411;SDS011;12544;46.760;15.942;2023-05-07T12:08:30;4.65;;;4.28;;
24411;SDS011;12544;46.760;15.942;2023-05-07T12:10:56;4.35;;;3.95;;
24411;SDS011;12544;46.760;15.942;2023-05-07T12:13:22;4.07;;;3.72;;
24411;SDS011;12544;46.760;15.942;2023-05-07T12:15:53;4.30;;;4.00;;
24411;SDS011;12544;46.760;15.942;2023-05-07T12:18:20;4.15;;;3.83;;
24411;SDS011;12544;46.760;15.942;2023-05-07T12:20:46;5.43;;;4.10;;
24411;SDS011;12544;46.760;15.942;2023-05-07T12:23:12;4.40;;;4.00;;
24411;SDS011;12544;46.760;15.942;2023-05-07T12:25:40;3.80;;;3.50;;
24411;SDS011;12544;46.760;15.942;2023-05-07T12:28:12;3.83;;;3.53;;
24411;SDS011;12544;46.760;15.942;2023-05-07T12:30:40;3.45;;;3.08;;
24411;SDS011;12544;46.760;15.942;2023-05-07T12:33:07;3.40;;;3.10;;
24411;SDS011;12544;46.760;15.942;2023-05-07T12:35:38;3.33;;;3.03;;
24411;SDS011;12544;46.760;15.942;2023-05-07T12:38:08;3.15;;;2.85;;
24411;SDS011;12544;46.760;15.942;2023-05-07T12:43:01;4.03;;;3.00;;
24411;SDS011;12544;46.760;15.942;2023-05-07T12:45:27;2.92;;;2.63;;
24411;SDS011;12544;46.760;15.942;2023-05-07T12:47:53;3.28;;;2.97;;
24411;SDS011;12544;46.760;15.942;2023-05-07T12:50:18;4.18;;;3.05;;
24411;SDS011;12544;46.760;15.942;2023-05-07T12:55:47;3.35;;;3.05;;
24411;SDS011;12544;46.760;15.942;2023-05-07T12:58:15;3.90;;;3.28;;
24411;SDS011;12544;46.760;15.942;2023-05-07T13:00:42;4.25;;;3.45;;
24411;SDS011;12544;46.760;15.942;2023-05-07T13:03:08;4.00;;;3.65;;
24411;SDS011;12544;46.760;15.942;2023-05-07T13:05:35;3.97;;;3.60;;
24411;SDS011;12544;46.760;15.942;2023-05-07T13:08:00;3.90;;;3.60;;
24411;SDS011;12544;46.760;15.942;2023-05-07T13:10:26;3.85;;;3.55;;
24411;SDS011;12544;46.760;15.942;2023-05-07T13:12:53;3.75;;;3.45;;
24411;SDS011;12544;46.760;15.942;2023-05-07T13:15:19;4.28;;;3.65;;
24411;SDS011;12544;46.760;15.942;2023-05-07T13:17:45;3.40;;;3.10;;
24411;SDS011;12544;46.760;15.942;2023-05-07T13:20:11;4.40;;;3.33;;
24411;SDS011;12544;46.760;15.942;2023-05-07T13:22:40;3.42;;;3.13;;
24411;SDS011;12544;46.760;15.942;2023-05-07T13:25:06;5.10;;;3.80;;
24411;SDS011;12544;46.760;15.942;2023-05-07T13:27:32;4.05;;;3.08;;
24411;SDS011;12544;46.760;15.942;2023-05-07T13:30:01;5.57;;;3.30;;
24411;SDS011;12544;46.760;15.942;2023-05-07T13:32:28;3.72;;;3.30;;
24411;SDS011;12544;46.760;15.942;2023-05-07T13:34:53;4.00;;;3.22;;
24411;SDS011;12544;46.760;15.942;2023-05-07T13:37:19;3.13;;;2.92;;
24411;SDS011;12544;46.760;15.942;2023-05-07T13:39:45;3.25;;;3.00;;
24411;SDS011;12544;46.760;15.942;2023-05-07T13:42:10;3.65;;;3.30;;
24411;SDS011;12544;46.760;15.942;2023-05-07T13:44:36;4.05;;;3.00;;
24411;SDS011;12544;46.760;15.942;2023-05-07T13:47:01;4.25;;;3.20;;
24411;SDS011;12544;46.760;15.942;2023-05-07T13:49:27;3.80;;;3.42;;
24411;SDS011;12544;46.760;15.942;2023-05-07T13:51:53;2.97;;;2.78;;
24411;SDS011;12544;46.760;15.942;2023-05-07T13:54:18;3.85;;;3.55;;
24411;SDS011;12544;46.760;15.942;2023-05-07T13:56:44;3.47;;;3.17;;
24411;SDS011;12544;46.760;15.942;2023-05-07T13:59:10;3.38;;;3.15;;
24411;SDS011;12544;46.760;15.942;2023-05-07T14:01:35;3.80;;;3.15;;
24411;SDS011;12544;46.760;15.942;2023-05-07T14:04:01;3.53;;;3.22;;
24411;SDS011;12544;46.760;15.942;2023-05-07T14:06:26;3.08;;;2.80;;
24411;SDS011;12544;46.760;15.942;2023-05-07T14:08:52;3.15;;;2.85;;
24411;SDS011;12544;46.760;15.942;2023-05-07T14:14:32;3.38;;;3.08;;
24411;SDS011;12544;46.760;15.942;2023-05-07T14:16:58;3.65;;;3.35;;
24411;SDS011;12544;46.760;15.942;2023-05-07T14:19:23;4.10;;;3.20;;
24411;SDS011;12544;46.760;15.942;2023-05-07T14:21:49;3.95;;;3.22;;
24411;SDS011;12544;46.760;15.942;2023-05-07T14:24:15;4.32;;;3.40;;
24411;SDS011;12544;46.760;15.942;2023-05-07T14:26:40;3.53;;;3.22;;
24411;SDS011;12544;46.760;15.942;2023-05-07T14:29:06;3.67;;;3.38;;
24411;SDS011;12544;46.760;15.942;2023-05-07T14:31:33;3.55;;;3.25;;
24411;SDS011;12544;46.760;15.942;2023-05-07T14:33:58;3.85;;;3.55;;
24411;SDS011;12544;46.760;15.942;2023-05-07T14:36:24;4.05;;;3.63;;
24411;SDS011;12544;46.760;15.942;2023-05-07T14:38:51;3.75;;;3.28;;
24411;SDS011;12544;46.760;15.942;2023-05-07T14:41:19;4.10;;;3.72;;
24411;SDS011;12544;46.760;15.942;2023-05-07T14:43:46;4.45;;;3.90;;
24411;SDS011;12544;46.760;15.942;2023-05-07T14:46:15;3.63;;;3.00;;
24411;SDS011;12544;46.760;15.942;2023-05-07T14:48:42;4.05;;;3.65;;
24411;SDS011;12544;46.760;15.942;2023-05-07T14:51:09;3.47;;;3.25;;
24411;SDS011;12544;46.760;15.942;2023-05-07T14:53:35;5.47;;;3.88;;
24411;SDS011;12544;46.760;15.942;2023-05-07T14:56:01;4.43;;;3.60;;
24411;SDS011;12544;46.760;15.942;2023-05-07T14:58:28;4.07;;;3.78;;
24411;SDS011;12544;46.760;15.942;2023-05-07T15:00:53;4.80;;;4.38;;
24411;SDS011;12544;46.760;15.942;2023-05-07T15:03:19;4.53;;;3.97;;
24411;SDS011;12544;46.760;15.942;2023-05-07T15:05:45;4.75;;;4.35;;
24411;SDS011;12544;46.760;15.942;2023-05-07T15:08:10;4.63;;;3.90;;
24411;SDS011;12544;46.760;15.942;2023-05-07T15:10:36;5.55;;;5.00;;
24411;SDS011;12544;46.760;15.942;2023-05-07T15:13:09;5.47;;;4.65;;
24411;SDS011;12544;46.760;15.942;2023-05-07T15:15:35;8.73;;;4.90;;
24411;SDS011;12544;46.760;15.942;2023-05-07T15:18:02;7.72;;;6.60;;
24411;SDS011;12544;46.760;15.942;2023-05-07T15:20:28;7.53;;;6.72;;
24411;SDS011;12544;46.760;15.942;2023-05-07T15:22:53;9.73;;;8.23;;
24411;SDS011;12544;46.760;15.942;2023-05-07T15:25:20;7.72;;;6.85;;
24411;SDS011;12544;46.760;15.942;2023-05-07T15:27:45;9.55;;;8.63;;